DW4743 Weather Reports


time (UTC)temp
C
wind
direction
speed
KPH
gust
KPH
rain 1hr
cm
rain 24hr
cm
rain mn
cm
humidity
%
barometer
mb
20190424082305 6 0 19.3 33.8 0.03 0.23 0.05 92 993.2
20190424081304 6 0 20.9 33.8 0.03 0.23 0.05 91 993.3
20190424075305 6 0 14.5 25.7 0.03 0.23 0.05 92 993.5
20190424074304 6 0 14.5 27.4 0.03 0.23 0.05 92 993.7
20190424073304 6 0 19.3 32.2 0.00 0.23 0.03 92 993.8
20190424072305 6 0 20.9 40.2 0.00 0.23 0.03 90 993.9
20190424071304 6 0 19.3 32.2 0.00 0.23 0.03 89 993.7
20190424061303 5 0 8.0 20.9 0.00 0.23 0.03 90 994.1
20190424060305 5 0 9.7 16.1 0.00 0.23 0.03 90 994.1
20190424055304 5 0 9.7 16.1 0.00 0.23 0.03 90 994.0
20190424054309 5 0 8.0 14.5 0.00 0.23 0.03 90 994.1
20190424053304 5 0 9.7 19.3 0.00 0.23 0.03 90 994.4
20190424052304 5 0 14.5 19.3 0.03 0.23 0.03 90 994.5
20190424050304 5 0 8.0 19.3 0.03 0.23 0.03 92 994.8
20190424045307 5 0 8.0 14.5 0.03 0.23 0.03 93 994.9
20190424044304 5 0 8.0 20.9 0.03 0.23 0.03 92 995.2
20190424043304 5 0 11.3 25.7 0.03 0.23 0.03 92 995.3
20190424042309 5 0 14.5 32.2 0.00 0.20 0.00 90 995.6
20190424040304 5 0 12.9 24.1 0.00 0.20 0.00 89 995.9
20190424035304 5 0 14.5 24.1 0.00 0.20 0.00 89 996.1
20190424033303 5 0 12.9 32.2 0.00 0.20 0.00 88 996.3
20190424025304 5 0 12.9 20.9 0.00 0.20 0.00 88 996.8
20190424024311 5 0 12.9 25.7 0.00 0.20 0.00 88 997.0
20190424023304 5 0 12.9 20.9 0.00 0.20 0.00 88 996.8
20190424022304 5 0 12.9 19.3 0.00 0.20 0.00 89 997.0
20190424021304 5 0 12.9 20.9 0.00 0.20 0.00 89 997.1
20190424020304 5 0 11.3 19.3 0.00 0.20 0.00 90 997.2
20190424015304 5 0 11.3 22.5 0.00 0.23 0.00 90 997.5
20190424014304 5 0 14.5 24.1 0.00 0.23 0.00 90 997.8
20190424013303 5 0 14.5 25.7 0.00 0.23 0.00 90 997.9
20190424010304 5 0 11.3 19.3 0.00 0.23 0.00 92 998.5
20190424005305 5 0 9.7 16.1 0.00 0.23 0.00 92 998.6
20190424004304 5 0 11.3 19.3 0.00 0.23 0.00 92 998.8
20190424003305 5 0 11.3 22.5 0.00 0.25 0.00 93 998.9
20190424000304 5 0 9.7 20.9 0.00 0.33 0.00 93 999.2
20190423235307 5 0 11.3 19.3 0.00 0.33 0.00 93 999.2
20190423234304 5 0 14.5 22.5 0.00 0.33 0.00 93 999.2
20190423233304 5 0 11.3 19.3 0.00 0.33 0.00 93 999.3
20190423232304 5 0 12.9 20.9 0.00 0.33 0.00 93 999.5
20190423231304 5 0 17.7 24.1 0.00 0.33 0.00 93 999.5
20190423230304 5 0 9.7 22.5 0.00 0.33 0.00 93 999.4
20190423225315 5 0 12.9 19.3 0.00 0.33 0.00 93 999.5
20190423221304 5 0 11.3 19.3 0.00 0.36 0.00 92 999.5
20190423220304 5 0 12.9 24.1 0.00 0.38 0.00 91 999.6
20190423213304 6 0 19.3 24.1 0.00 0.43 0.38 82 999.6
20190423212304 6 0 14.5 19.3 0.00 0.46 0.38 81 999.4
20190423210304 6 0 12.9 22.5 0.00 0.51 0.38 79 999.4
20190423205305 6 0 16.1 24.1 0.00 0.51 0.38 79 999.4
20190423204304 6 0 16.1 24.1 0.00 0.53 0.38 79 999.3
20190423203304 6 0 11.3 19.3 0.00 0.56 0.38 80 999.3
20190423202304 6 0 9.7 19.3 0.00 0.56 0.38 79 999.2
20190423200310 6 0 12.9 20.9 0.00 0.58 0.38 81 998.9
20190423193304 7 0 8.0 14.5 0.00 0.61 0.38 77 998.4
20190423163306 8 0 25.7 38.6 0.03 0.58 0.36 80 997.3
20190423162306 8 0 20.9 27.4 0.03 0.58 0.36 87 997.0
20190423161306 8 0 4.8 9.7 0.05 0.58 0.36 91 997.1
20190423160306 7 0 4.8 9.7 0.05 0.58 0.36 93 997.1
20190423152316 7 0 22.5 37.0 0.03 0.56 0.33 89 997.3
20190423151311 8 0 11.3 20.9 0.00 0.53 0.33 86 996.8
20190423150306 9 0 14.5 27.4 0.00 0.53 0.33 85 996.8
20190423145319 9 0 16.1 24.1 0.00 0.53 0.33 86 997.0
20190423144308 8 0 9.7 19.3 0.00 0.53 0.33 93 997.0
20190423143307 7 0 12.9 19.3 0.00 0.53 0.33 93 997.1
20190423141307 6 0 9.7 19.3 0.00 0.53 0.33 97 997.3
20190423135315 6 0 17.7 25.7 0.05 0.53 0.33 97 997.4
20190423134315 6 0 11.3 20.9 0.10 0.53 0.33 98 997.3
20190423130311 5 0 16.1 24.1 0.10 0.51 0.28 97 996.9
20190423125307 4 0 16.1 25.7 0.08 0.48 0.25 96 996.7
20190423123312 4 0 24.1 37.0 0.05 0.43 0.23 94 996.5
20190423122305 5 0 27.4 37.0 0.03 0.43 0.20 92 996.3
20190423121306 6 0 22.5 32.2 0.03 0.43 0.20 92 996.1
20190423120306 6 0 27.4 35.4 0.00 0.41 0.18 89 995.8
20190423115305 6 0 25.7 33.8 0.00 0.41 0.18 87 995.5
20190423114304 7 0 27.4 48.3 0.00 0.41 0.18 81 995.4
20190423113310 9 0 29.0 45.1 0.00 0.41 0.18 72 995.0
20190423112305 9 0 27.4 45.1 0.00 0.41 0.18 72 994.9
20190423111305 10 0 27.4 40.2 0.00 0.41 0.18 71 994.7
20190423110305 10 0 22.5 40.2 0.00 0.41 0.18 69 994.5
20190423104305 10 0 24.1 41.8 0.00 0.41 0.18 66 994.4
20190423094330 9 0 32.2 41.8 0.00 0.41 0.18 72 994.3
20190423091305 8 0 27.4 38.6 0.00 0.41 0.18 74 994.1
20190423090305 8 0 22.5 38.6 0.00 0.41 0.18 75 994.0
20190423085305 8 0 29.0 38.6 0.00 0.41 0.18 75 994.0
20190423084305 8 0 25.7 35.4 0.00 0.41 0.18 78 994.0
20190423083305 8 0 22.5 35.4 0.00 0.41 0.18 80 994.0